sensor_id;sensor_type;location;lat;lon;timestamp;P1;durP1;ratioP1;P2;durP2;ratioP2
65825;SDS011;52586;-43.152;172.732;2023-04-06T00:00:55;8.95;;;3.00;;
65825;SDS011;52586;-43.152;172.732;2023-04-06T00:03:26;7.88;;;2.50;;
65825;SDS011;52586;-43.152;172.732;2023-04-06T00:05:58;7.50;;;2.22;;
65825;SDS011;52586;-43.152;172.732;2023-04-06T00:08:29;9.95;;;3.03;;
65825;SDS011;52586;-43.152;172.732;2023-04-06T00:10:59;8.32;;;2.88;;
65825;SDS011;52586;-43.152;172.732;2023-04-06T00:13:30;9.98;;;2.70;;
65825;SDS011;52586;-43.152;172.732;2023-04-06T00:16:01;12.18;;;3.45;;
65825;SDS011;52586;-43.152;172.732;2023-04-06T00:18:32;8.10;;;2.65;;
65825;SDS011;52586;-43.152;172.732;2023-04-06T00:21:04;7.15;;;2.25;;
65825;SDS011;52586;-43.152;172.732;2023-04-06T00:23:35;9.75;;;3.17;;
65825;SDS011;52586;-43.152;172.732;2023-04-06T00:26:06;8.68;;;2.83;;
65825;SDS011;52586;-43.152;172.732;2023-04-06T00:28:37;8.50;;;3.40;;
65825;SDS011;52586;-43.152;172.732;2023-04-06T00:31:07;8.18;;;2.97;;
65825;SDS011;52586;-43.152;172.732;2023-04-06T00:33:38;10.68;;;2.72;;
65825;SDS011;52586;-43.152;172.732;2023-04-06T00:36:10;6.95;;;2.85;;
65825;SDS011;52586;-43.152;172.732;2023-04-06T00:38:41;8.82;;;2.85;;
65825;SDS011;52586;-43.152;172.732;2023-04-06T00:41:11;7.75;;;2.63;;
65825;SDS011;52586;-43.152;172.732;2023-04-06T00:43:42;9.45;;;2.88;;
65825;SDS011;52586;-43.152;172.732;2023-04-06T00:46:13;8.70;;;2.83;;
65825;SDS011;52586;-43.152;172.732;2023-04-06T00:48:44;12.40;;;3.10;;
65825;SDS011;52586;-43.152;172.732;2023-04-06T00:51:16;7.15;;;2.88;;
65825;SDS011;52586;-43.152;172.732;2023-04-06T00:53:47;10.15;;;2.90;;
65825;SDS011;52586;-43.152;172.732;2023-04-06T00:56:17;10.25;;;3.38;;
65825;SDS011;52586;-43.152;172.732;2023-04-06T00:58:52;11.50;;;3.28;;
65825;SDS011;52586;-43.152;172.732;2023-04-06T01:01:23;13.32;;;3.50;;
65825;SDS011;52586;-43.152;172.732;2023-04-06T01:03:54;8.48;;;2.83;;
65825;SDS011;52586;-43.152;172.732;2023-04-06T01:06:27;11.73;;;3.53;;
65825;SDS011;52586;-43.152;172.732;2023-04-06T01:08:57;9.43;;;3.15;;
65825;SDS011;52586;-43.152;172.732;2023-04-06T01:11:28;10.93;;;3.20;;
65825;SDS011;52586;-43.152;172.732;2023-04-06T01:13:58;9.70;;;2.92;;
65825;SDS011;52586;-43.152;172.732;2023-04-06T01:16:29;10.68;;;3.75;;
65825;SDS011;52586;-43.152;172.732;2023-04-06T01:19:00;7.78;;;2.85;;
65825;SDS011;52586;-43.152;172.732;2023-04-06T01:21:37;8.13;;;2.90;;
65825;SDS011;52586;-43.152;172.732;2023-04-06T01:24:11;11.57;;;3.40;;
65825;SDS011;52586;-43.152;172.732;2023-04-06T01:26:41;8.55;;;2.53;;
65825;SDS011;52586;-43.152;172.732;2023-04-06T01:29:12;9.77;;;3.53;;
65825;SDS011;52586;-43.152;172.732;2023-04-06T01:31:43;11.65;;;3.17;;
65825;SDS011;52586;-43.152;172.732;2023-04-06T01:34:13;13.70;;;3.60;;
65825;SDS011;52586;-43.152;172.732;2023-04-06T01:36:44;10.02;;;3.28;;
65825;SDS011;52586;-43.152;172.732;2023-04-06T01:39:17;14.98;;;3.83;;
65825;SDS011;52586;-43.152;172.732;2023-04-06T01:41:48;10.90;;;3.30;;
65825;SDS011;52586;-43.152;172.732;2023-04-06T01:44:18;12.63;;;3.97;;
65825;SDS011;52586;-43.152;172.732;2023-04-06T01:46:49;10.07;;;3.72;;
65825;SDS011;52586;-43.152;172.732;2023-04-06T01:49:19;11.05;;;3.50;;
65825;SDS011;52586;-43.152;172.732;2023-04-06T01:51:50;8.70;;;2.63;;
65825;SDS011;52586;-43.152;172.732;2023-04-06T01:54:23;12.93;;;3.58;;
65825;SDS011;52586;-43.152;172.732;2023-04-06T01:56:53;8.07;;;2.65;;
65825;SDS011;52586;-43.152;172.732;2023-04-06T01:59:24;8.98;;;2.78;;
65825;SDS011;52586;-43.152;172.732;2023-04-06T02:01:54;9.70;;;3.05;;
65825;SDS011;52586;-43.152;172.732;2023-04-06T02:04:25;7.63;;;3.17;;
65825;SDS011;52586;-43.152;172.732;2023-04-06T02:06:55;11.98;;;3.45;;
65825;SDS011;52586;-43.152;172.732;2023-04-06T02:09:28;13.95;;;4.13;;
65825;SDS011;52586;-43.152;172.732;2023-04-06T02:11:59;13.15;;;3.63;;
65825;SDS011;52586;-43.152;172.732;2023-04-06T02:14:29;8.30;;;3.03;;
65825;SDS011;52586;-43.152;172.732;2023-04-06T02:17:00;15.07;;;3.40;;
65825;SDS011;52586;-43.152;172.732;2023-04-06T02:19:30;11.73;;;4.20;;
65825;SDS011;52586;-43.152;172.732;2023-04-06T02:22:01;11.07;;;3.13;;
65825;SDS011;52586;-43.152;172.732;2023-04-06T02:24:34;10.30;;;3.03;;
65825;SDS011;52586;-43.152;172.732;2023-04-06T02:27:04;10.98;;;2.85;;
65825;SDS011;52586;-43.152;172.732;2023-04-06T02:29:35;11.48;;;3.47;;
65825;SDS011;52586;-43.152;172.732;2023-04-06T02:32:06;10.98;;;3.17;;
65825;SDS011;52586;-43.152;172.732;2023-04-06T02:34:36;9.30;;;3.42;;
65825;SDS011;52586;-43.152;172.732;2023-04-06T02:37:07;9.02;;;3.22;;
65825;SDS011;52586;-43.152;172.732;2023-04-06T02:39:39;9.75;;;3.58;;
65825;SDS011;52586;-43.152;172.732;2023-04-06T02:42:10;9.88;;;3.22;;
65825;SDS011;52586;-43.152;172.732;2023-04-06T02:44:41;9.40;;;3.17;;
65825;SDS011;52586;-43.152;172.732;2023-04-06T02:47:12;11.35;;;3.70;;
65825;SDS011;52586;-43.152;172.732;2023-04-06T02:49:42;10.25;;;3.33;;
65825;SDS011;52586;-43.152;172.732;2023-04-06T02:52:13;7.93;;;2.75;;
65825;SDS011;52586;-43.152;172.732;2023-04-06T02:54:46;10.85;;;3.33;;
65825;SDS011;52586;-43.152;172.732;2023-04-06T02:57:17;10.27;;;3.58;;
65825;SDS011;52586;-43.152;172.732;2023-04-06T02:59:48;9.88;;;2.97;;
65825;SDS011;52586;-43.152;172.732;2023-04-06T03:02:18;9.40;;;2.78;;
65825;SDS011;52586;-43.152;172.732;2023-04-06T03:04:49;7.78;;;3.13;;
65825;SDS011;52586;-43.152;172.732;2023-04-06T03:07:20;9.20;;;3.17;;
65825;SDS011;52586;-43.152;172.732;2023-04-06T03:09:52;10.73;;;3.00;;
65825;SDS011;52586;-43.152;172.732;2023-04-06T03:12:23;8.95;;;3.33;;
65825;SDS011;52586;-43.152;172.732;2023-04-06T03:14:54;8.95;;;2.97;;
65825;SDS011;52586;-43.152;172.732;2023-04-06T03:17:24;9.52;;;2.88;;
65825;SDS011;52586;-43.152;172.732;2023-04-06T03:19:55;10.85;;;2.95;;
65825;SDS011;52586;-43.152;172.732;2023-04-06T03:22:26;10.13;;;3.15;;
65825;SDS011;52586;-43.152;172.732;2023-04-06T03:24:59;12.57;;;3.30;;
65825;SDS011;52586;-43.152;172.732;2023-04-06T03:27:29;7.63;;;2.78;;
65825;SDS011;52586;-43.152;172.732;2023-04-06T03:30:00;8.63;;;3.13;;
65825;SDS011;52586;-43.152;172.732;2023-04-06T03:32:31;6.50;;;2.45;;
65825;SDS011;52586;-43.152;172.732;2023-04-06T03:35:01;9.23;;;3.38;;
65825;SDS011;52586;-43.152;172.732;2023-04-06T03:37:32;11.65;;;3.05;;
65825;SDS011;52586;-43.152;172.732;2023-04-06T03:40:05;9.82;;;3.13;;
65825;SDS011;52586;-43.152;172.732;2023-04-06T03:42:36;11.30;;;3.20;;
65825;SDS011;52586;-43.152;172.732;2023-04-06T03:45:07;9.05;;;3.47;;
65825;SDS011;52586;-43.152;172.732;2023-04-06T03:47:38;8.27;;;3.00;;
65825;SDS011;52586;-43.152;172.732;2023-04-06T03:50:09;13.18;;;3.63;;
65825;SDS011;52586;-43.152;172.732;2023-04-06T03:52:40;9.43;;;3.42;;
65825;SDS011;52586;-43.152;172.732;2023-04-06T03:55:13;8.70;;;2.83;;
65825;SDS011;52586;-43.152;172.732;2023-04-06T03:57:43;11.00;;;3.15;;
65825;SDS011;52586;-43.152;172.732;2023-04-06T04:00:14;10.00;;;3.28;;
65825;SDS011;52586;-43.152;172.732;2023-04-06T04:02:45;11.90;;;3.80;;
65825;SDS011;52586;-43.152;172.732;2023-04-06T04:05:16;7.78;;;3.00;;
65825;SDS011;52586;-43.152;172.732;2023-04-06T04:07:51;12.30;;;3.88;;
65825;SDS011;52586;-43.152;172.732;2023-04-06T04:10:23;11.27;;;3.95;;
65825;SDS011;52586;-43.152;172.732;2023-04-06T04:12:54;9.43;;;3.00;;
65825;SDS011;52586;-43.152;172.732;2023-04-06T04:15:25;9.48;;;3.30;;
65825;SDS011;52586;-43.152;172.732;2023-04-06T04:17:55;9.15;;;3.20;;
65825;SDS011;52586;-43.152;172.732;2023-04-06T04:20:26;9.43;;;3.97;;
65825;SDS011;52586;-43.152;172.732;2023-04-06T04:22:56;10.68;;;3.50;;
65825;SDS011;52586;-43.152;172.732;2023-04-06T04:25:29;8.57;;;3.40;;
65825;SDS011;52586;-43.152;172.732;2023-04-06T04:28:00;9.60;;;3.30;;
65825;SDS011;52586;-43.152;172.732;2023-04-06T04:30:30;10.57;;;3.55;;
65825;SDS011;52586;-43.152;172.732;2023-04-06T04:33:01;14.27;;;3.95;;
65825;SDS011;52586;-43.152;172.732;2023-04-06T04:35:32;11.90;;;3.90;;
65825;SDS011;52586;-43.152;172.732;2023-04-06T04:38:05;13.63;;;3.58;;
65825;SDS011;52586;-43.152;172.732;2023-04-06T04:40:38;15.57;;;4.25;;
65825;SDS011;52586;-43.152;172.732;2023-04-06T04:43:08;9.65;;;3.63;;
65825;SDS011;52586;-43.152;172.732;2023-04-06T04:45:39;12.00;;;4.28;;
65825;SDS011;52586;-43.152;172.732;2023-04-06T04:48:10;13.00;;;4.45;;
65825;SDS011;52586;-43.152;172.732;2023-04-06T04:50:40;13.00;;;4.32;;
65825;SDS011;52586;-43.152;172.732;2023-04-06T04:53:11;13.48;;;4.88;;
65825;SDS011;52586;-43.152;172.732;2023-04-06T04:55:44;11.00;;;4.22;;
65825;SDS011;52586;-43.152;172.732;2023-04-06T04:58:14;14.88;;;4.28;;
65825;SDS011;52586;-43.152;172.732;2023-04-06T05:00:46;11.60;;;3.83;;
65825;SDS011;52586;-43.152;172.732;2023-04-06T05:03:18;9.13;;;4.18;;
65825;SDS011;52586;-43.152;172.732;2023-04-06T05:05:51;14.57;;;4.25;;
65825;SDS011;52586;-43.152;172.732;2023-04-06T05:08:22;13.50;;;4.07;;
65825;SDS011;52586;-43.152;172.732;2023-04-06T05:10:55;13.43;;;4.13;;
65825;SDS011;52586;-43.152;172.732;2023-04-06T05:13:25;10.27;;;4.40;;
65825;SDS011;52586;-43.152;172.732;2023-04-06T05:15:56;9.75;;;3.72;;
65825;SDS011;52586;-43.152;172.732;2023-04-06T05:18:27;10.15;;;3.60;;
65825;SDS011;52586;-43.152;172.732;2023-04-06T05:20:57;10.98;;;3.85;;
65825;SDS011;52586;-43.152;172.732;2023-04-06T05:23:28;9.70;;;3.63;;
65825;SDS011;52586;-43.152;172.732;2023-04-06T05:26:01;17.17;;;4.53;;
65825;SDS011;52586;-43.152;172.732;2023-04-06T05:28:32;18.10;;;4.22;;
65825;SDS011;52586;-43.152;172.732;2023-04-06T05:31:03;20.90;;;5.15;;
65825;SDS011;52586;-43.152;172.732;2023-04-06T05:33:33;13.50;;;4.07;;
65825;SDS011;52586;-43.152;172.732;2023-04-06T05:36:04;17.45;;;4.10;;
65825;SDS011;52586;-43.152;172.732;2023-04-06T05:38:35;15.02;;;4.13;;
65825;SDS011;52586;-43.152;172.732;2023-04-06T05:41:08;16.83;;;4.68;;
65825;SDS011;52586;-43.152;172.732;2023-04-06T05:43:38;8.20;;;4.05;;
65825;SDS011;52586;-43.152;172.732;2023-04-06T05:46:09;14.18;;;4.18;;
65825;SDS011;52586;-43.152;172.732;2023-04-06T05:48:40;11.73;;;3.72;;
65825;SDS011;52586;-43.152;172.732;2023-04-06T05:51:11;10.65;;;4.55;;
65825;SDS011;52586;-43.152;172.732;2023-04-06T05:53:41;9.23;;;3.65;;
65825;SDS011;52586;-43.152;172.732;2023-04-06T05:56:15;10.73;;;3.88;;
65825;SDS011;52586;-43.152;172.732;2023-04-06T05:58:46;14.55;;;4.32;;
65825;SDS011;52586;-43.152;172.732;2023-04-06T06:01:17;13.57;;;4.18;;
65825;SDS011;52586;-43.152;172.732;2023-04-06T06:03:47;12.23;;;3.67;;
65825;SDS011;52586;-43.152;172.732;2023-04-06T06:06:18;8.77;;;3.30;;
65825;SDS011;52586;-43.152;172.732;2023-04-06T06:08:49;9.48;;;3.42;;
65825;SDS011;52586;-43.152;172.732;2023-04-06T06:11:21;9.00;;;3.67;;
65825;SDS011;52586;-43.152;172.732;2023-04-06T06:13:52;13.15;;;4.40;;
65825;SDS011;52586;-43.152;172.732;2023-04-06T06:16:23;13.75;;;4.60;;
65825;SDS011;52586;-43.152;172.732;2023-04-06T06:18:53;9.50;;;3.47;;
65825;SDS011;52586;-43.152;172.732;2023-04-06T06:21:24;9.38;;;3.50;;
65825;SDS011;52586;-43.152;172.732;2023-04-06T06:23:55;6.95;;;3.10;;
65825;SDS011;52586;-43.152;172.732;2023-04-06T06:26:28;10.18;;;2.88;;
65825;SDS011;52586;-43.152;172.732;2023-04-06T06:28:58;7.05;;;3.25;;
65825;SDS011;52586;-43.152;172.732;2023-04-06T06:31:29;7.97;;;3.17;;
65825;SDS011;52586;-43.152;172.732;2023-04-06T06:34:00;8.50;;;3.65;;
65825;SDS011;52586;-43.152;172.732;2023-04-06T06:36:30;7.40;;;2.60;;
65825;SDS011;52586;-43.152;172.732;2023-04-06T06:39:01;6.25;;;2.95;;
65825;SDS011;52586;-43.152;172.732;2023-04-06T06:41:34;8.07;;;3.13;;
65825;SDS011;52586;-43.152;172.732;2023-04-06T06:44:05;8.10;;;3.03;;
65825;SDS011;52586;-43.152;172.732;2023-04-06T06:46:36;8.00;;;2.95;;
65825;SDS011;52586;-43.152;172.732;2023-04-06T06:49:07;6.53;;;2.60;;
65825;SDS011;52586;-43.152;172.732;2023-04-06T06:51:39;5.68;;;2.50;;
65825;SDS011;52586;-43.152;172.732;2023-04-06T06:54:09;5.88;;;2.58;;
65825;SDS011;52586;-43.152;172.732;2023-04-06T06:56:42;5.47;;;2.83;;
65825;SDS011;52586;-43.152;172.732;2023-04-06T06:59:13;8.13;;;2.78;;
65825;SDS011;52586;-43.152;172.732;2023-04-06T07:01:44;7.15;;;2.78;;
65825;SDS011;52586;-43.152;172.732;2023-04-06T07:04:14;7.47;;;2.83;;
65825;SDS011;52586;-43.152;172.732;2023-04-06T07:06:45;7.68;;;2.65;;
65825;SDS011;52586;-43.152;172.732;2023-04-06T07:09:16;5.50;;;2.47;;
65825;SDS011;52586;-43.152;172.732;2023-04-06T07:11:49;7.15;;;2.60;;
65825;SDS011;52586;-43.152;172.732;2023-04-06T07:14:19;5.80;;;2.67;;
65825;SDS011;52586;-43.152;172.732;2023-04-06T07:16:50;4.97;;;2.60;;
65825;SDS011;52586;-43.152;172.732;2023-04-06T07:19:21;6.90;;;2.28;;
65825;SDS011;52586;-43.152;172.732;2023-04-06T07:21:51;5.70;;;2.58;;
65825;SDS011;52586;-43.152;172.732;2023-04-06T07:24:22;7.32;;;2.83;;
65825;SDS011;52586;-43.152;172.732;2023-04-06T07:26:54;4.00;;;2.20;;
65825;SDS011;52586;-43.152;172.732;2023-04-06T07:29:26;4.13;;;2.03;;
65825;SDS011;52586;-43.152;172.732;2023-04-06T07:31:57;6.53;;;2.42;;
65825;SDS011;52586;-43.152;172.732;2023-04-06T07:34:28;6.55;;;2.75;;
65825;SDS011;52586;-43.152;172.732;2023-04-06T07:36:58;3.97;;;2.00;;
65825;SDS011;52586;-43.152;172.732;2023-04-06T07:39:29;5.40;;;2.00;;
65825;SDS011;52586;-43.152;172.732;2023-04-06T07:42:02;5.60;;;2.63;;
65825;SDS011;52586;-43.152;172.732;2023-04-06T07:44:32;5.55;;;2.33;;
65825;SDS011;52586;-43.152;172.732;2023-04-06T07:47:03;4.07;;;2.53;;
65825;SDS011;52586;-43.152;172.732;2023-04-06T07:49:34;4.20;;;2.25;;
65825;SDS011;52586;-43.152;172.732;2023-04-06T07:52:04;4.05;;;2.22;;
65825;SDS011;52586;-43.152;172.732;2023-04-06T07:54:35;4.60;;;2.03;;
65825;SDS011;52586;-43.152;172.732;2023-04-06T07:57:07;3.53;;;1.92;;
65825;SDS011;52586;-43.152;172.732;2023-04-06T07:59:38;4.07;;;2.03;;
65825;SDS011;52586;-43.152;172.732;2023-04-06T08:02:09;6.15;;;2.42;;
65825;SDS011;52586;-43.152;172.732;2023-04-06T08:04:39;6.30;;;2.28;;
65825;SDS011;52586;-43.152;172.732;2023-04-06T08:07:10;4.32;;;2.20;;
65825;SDS011;52586;-43.152;172.732;2023-04-06T08:09:41;3.63;;;1.80;;
65825;SDS011;52586;-43.152;172.732;2023-04-06T08:12:13;4.70;;;2.10;;
65825;SDS011;52586;-43.152;172.732;2023-04-06T08:14:44;3.92;;;1.80;;
65825;SDS011;52586;-43.152;172.732;2023-04-06T08:17:15;4.60;;;1.85;;
65825;SDS011;52586;-43.152;172.732;2023-04-06T08:19:45;4.50;;;2.20;;
65825;SDS011;52586;-43.152;172.732;2023-04-06T08:22:16;4.15;;;2.20;;
65825;SDS011;52586;-43.152;172.732;2023-04-06T08:24:47;4.70;;;1.90;;
65825;SDS011;52586;-43.152;172.732;2023-04-06T08:27:19;3.45;;;1.90;;
65825;SDS011;52586;-43.152;172.732;2023-04-06T08:29:50;4.53;;;1.70;;
65825;SDS011;52586;-43.152;172.732;2023-04-06T08:32:21;3.13;;;1.58;;
65825;SDS011;52586;-43.152;172.732;2023-04-06T08:34:53;3.85;;;1.75;;
65825;SDS011;52586;-43.152;172.732;2023-04-06T08:37:24;5.85;;;2.10;;
65825;SDS011;52586;-43.152;172.732;2023-04-06T08:39:55;3.33;;;1.55;;
65825;SDS011;52586;-43.152;172.732;2023-04-06T08:42:28;3.78;;;1.63;;
65825;SDS011;52586;-43.152;172.732;2023-04-06T08:45:02;4.25;;;2.00;;
65825;SDS011;52586;-43.152;172.732;2023-04-06T08:47:34;3.15;;;1.75;;
65825;SDS011;52586;-43.152;172.732;2023-04-06T08:50:05;6.70;;;1.88;;
65825;SDS011;52586;-43.152;172.732;2023-04-06T08:52:37;4.53;;;2.15;;
65825;SDS011;52586;-43.152;172.732;2023-04-06T08:55:09;4.05;;;1.90;;
65825;SDS011;52586;-43.152;172.732;2023-04-06T08:57:41;3.50;;;1.92;;
65825;SDS011;52586;-43.152;172.732;2023-04-06T09:00:13;4.78;;;1.70;;
65825;SDS011;52586;-43.152;172.732;2023-04-06T09:02:45;2.95;;;1.70;;
65825;SDS011;52586;-43.152;172.732;2023-04-06T09:05:17;3.63;;;1.77;;
65825;SDS011;52586;-43.152;172.732;2023-04-06T09:07:49;4.75;;;1.98;;
65825;SDS011;52586;-43.152;172.732;2023-04-06T09:10:20;3.85;;;1.90;;
65825;SDS011;52586;-43.152;172.732;2023-04-06T09:13:02;4.15;;;1.90;;
65825;SDS011;52586;-43.152;172.732;2023-04-06T09:15:33;2.15;;;1.50;;
65825;SDS011;52586;-43.152;172.732;2023-04-06T09:18:04;5.55;;;2.20;;
65825;SDS011;52586;-43.152;172.732;2023-04-06T09:20:35;3.30;;;2.13;;
65825;SDS011;52586;-43.152;172.732;2023-04-06T09:23:06;3.67;;;1.95;;
65825;SDS011;52586;-43.152;172.732;2023-04-06T09:25:46;5.18;;;2.15;;
65825;SDS011;52586;-43.152;172.732;2023-04-06T09:28:18;2.78;;;1.80;;
65825;SDS011;52586;-43.152;172.732;2023-04-06T09:30:49;3.22;;;1.83;;
65825;SDS011;52586;-43.152;172.732;2023-04-06T09:33:22;3.88;;;1.67;;
65825;SDS011;52586;-43.152;172.732;2023-04-06T09:35:53;2.95;;;1.63;;
65825;SDS011;52586;-43.152;172.732;2023-04-06T09:38:23;4.03;;;1.80;;
65825;SDS011;52586;-43.152;172.732;2023-04-06T09:40:54;3.40;;;1.75;;
65825;SDS011;52586;-43.152;172.732;2023-04-06T09:43:27;4.22;;;1.80;;
65825;SDS011;52586;-43.152;172.732;2023-04-06T09:45:58;3.30;;;1.58;;
65825;SDS011;52586;-43.152;172.732;2023-04-06T09:48:31;3.50;;;1.90;;
65825;SDS011;52586;-43.152;172.732;2023-04-06T09:51:04;2.25;;;1.55;;
65825;SDS011;52586;-43.152;172.732;2023-04-06T09:53:39;3.17;;;1.60;;
65825;SDS011;52586;-43.152;172.732;2023-04-06T09:56:13;3.35;;;1.58;;
65825;SDS011;52586;-43.152;172.732;2023-04-06T09:58:51;4.13;;;1.70;;
65825;SDS011;52586;-43.152;172.732;2023-04-06T10:01:27;3.45;;;1.70;;
65825;SDS011;52586;-43.152;172.732;2023-04-06T10:04:04;2.83;;;1.58;;
65825;SDS011;52586;-43.152;172.732;2023-04-06T10:06:49;2.13;;;1.27;;
65825;SDS011;52586;-43.152;172.732;2023-04-06T10:09:21;2.47;;;1.73;;
65825;SDS011;52586;-43.152;172.732;2023-04-06T10:11:54;3.65;;;1.75;;
65825;SDS011;52586;-43.152;172.732;2023-04-06T10:14:28;2.28;;;1.45;;
65825;SDS011;52586;-43.152;172.732;2023-04-06T10:17:03;2.42;;;1.58;;
65825;SDS011;52586;-43.152;172.732;2023-04-06T10:19:46;2.58;;;1.67;;
65825;SDS011;52586;-43.152;172.732;2023-04-06T10:22:21;2.75;;;1.33;;
65825;SDS011;52586;-43.152;172.732;2023-04-06T10:24:56;3.50;;;1.63;;
65825;SDS011;52586;-43.152;172.732;2023-04-06T10:27:28;2.08;;;1.38;;
65825;SDS011;52586;-43.152;172.732;2023-04-06T10:30:03;2.75;;;1.67;;
65825;SDS011;52586;-43.152;172.732;2023-04-06T10:32:35;1.98;;;1.50;;
65825;SDS011;52586;-43.152;172.732;2023-04-06T10:35:08;3.58;;;1.90;;
65825;SDS011;52586;-43.152;172.732;2023-04-06T10:37:47;3.85;;;1.95;;
65825;SDS011;52586;-43.152;172.732;2023-04-06T10:40:23;2.58;;;1.50;;
65825;SDS011;52586;-43.152;172.732;2023-04-06T10:43:06;2.25;;;1.25;;
65825;SDS011;52586;-43.152;172.732;2023-04-06T10:45:40;2.97;;;1.50;;
65825;SDS011;52586;-43.152;172.732;2023-04-06T10:48:14;1.88;;;1.40;;
65825;SDS011;52586;-43.152;172.732;2023-04-06T10:50:46;3.08;;;1.55;;
65825;SDS011;52586;-43.152;172.732;2023-04-06T10:53:21;1.60;;;1.27;;
65825;SDS011;52586;-43.152;172.732;2023-04-06T10:55:56;2.13;;;1.60;;
65825;SDS011;52586;-43.152;172.732;2023-04-06T10:58:27;2.55;;;1.60;;
65825;SDS011;52586;-43.152;172.732;2023-04-06T11:01:00;2.60;;;1.33;;
65825;SDS011;52586;-43.152;172.732;2023-04-06T11:03:30;2.97;;;1.20;;
65825;SDS011;52586;-43.152;172.732;2023-04-06T11:06:11;2.20;;;1.58;;
65825;SDS011;52586;-43.152;172.732;2023-04-06T11:08:48;2.35;;;1.58;;
65825;SDS011;52586;-43.152;172.732;2023-04-06T11:11:19;2.65;;;1.33;;
65825;SDS011;52586;-43.152;172.732;2023-04-06T11:13:52;2.30;;;1.45;;
65825;SDS011;52586;-43.152;172.732;2023-04-06T11:16:26;2.90;;;1.50;;
65825;SDS011;52586;-43.152;172.732;2023-04-06T11:18:58;1.65;;;1.25;;
65825;SDS011;52586;-43.152;172.732;2023-04-06T11:21:33;2.80;;;1.40;;
65825;SDS011;52586;-43.152;172.732;2023-04-06T11:24:08;1.60;;;1.27;;
65825;SDS011;52586;-43.152;172.732;2023-04-06T11:26:40;3.08;;;1.30;;
65825;SDS011;52586;-43.152;172.732;2023-04-06T11:29:13;2.05;;;1.00;;
65825;SDS011;52586;-43.152;172.732;2023-04-06T11:31:47;1.98;;;1.20;;
65825;SDS011;52586;-43.152;172.732;2023-04-06T11:34:18;2.28;;;1.20;;
65825;SDS011;52586;-43.152;172.732;2023-04-06T11:36:53;2.53;;;1.40;;
65825;SDS011;52586;-43.152;172.732;2023-04-06T11:39:25;1.63;;;1.27;;
65825;SDS011;52586;-43.152;172.732;2023-04-06T11:41:57;2.10;;;1.40;;
65825;SDS011;52586;-43.152;172.732;2023-04-06T11:44:31;3.72;;;1.67;;
65825;SDS011;52586;-43.152;172.732;2023-04-06T11:47:04;1.75;;;1.27;;
65825;SDS011;52586;-43.152;172.732;2023-04-06T11:49:37;2.63;;;1.50;;
65825;SDS011;52586;-43.152;172.732;2023-04-06T11:52:14;1.60;;;1.10;;
65825;SDS011;52586;-43.152;172.732;2023-04-06T11:54:46;2.42;;;1.30;;
65825;SDS011;52586;-43.152;172.732;2023-04-06T11:57:17;2.50;;;1.48;;
65825;SDS011;52586;-43.152;172.732;2023-04-06T11:59:51;1.80;;;1.17;;
65825;SDS011;52586;-43.152;172.732;2023-04-06T12:02:24;2.50;;;1.55;;
65825;SDS011;52586;-43.152;172.732;2023-04-06T12:04:54;2.97;;;1.65;;
65825;SDS011;52586;-43.152;172.732;2023-04-06T12:07:25;1.90;;;1.30;;
65825;SDS011;52586;-43.152;172.732;2023-04-06T12:09:56;2.08;;;1.25;;
65825;SDS011;52586;-43.152;172.732;2023-04-06T12:12:27;1.85;;;1.33;;
65825;SDS011;52586;-43.152;172.732;2023-04-06T12:14:58;2.58;;;1.50;;
65825;SDS011;52586;-43.152;172.732;2023-04-06T12:17:31;2.45;;;1.20;;
65825;SDS011;52586;-43.152;172.732;2023-04-06T12:20:01;1.70;;;1.30;;
65825;SDS011;52586;-43.152;172.732;2023-04-06T12:22:32;1.65;;;1.02;;
65825;SDS011;52586;-43.152;172.732;2023-04-06T12:25:03;2.03;;;1.20;;
65825;SDS011;52586;-43.152;172.732;2023-04-06T12:27:34;2.42;;;1.15;;
65825;SDS011;52586;-43.152;172.732;2023-04-06T12:30:05;1.95;;;1.20;;
65825;SDS011;52586;-43.152;172.732;2023-04-06T12:32:39;2.15;;;1.10;;
65825;SDS011;52586;-43.152;172.732;2023-04-06T12:35:09;1.63;;;1.30;;
65825;SDS011;52586;-43.152;172.732;2023-04-06T12:37:41;1.48;;;1.13;;
65825;SDS011;52586;-43.152;172.732;2023-04-06T12:40:12;1.85;;;1.08;;
65825;SDS011;52586;-43.152;172.732;2023-04-06T12:42:43;1.30;;;1.10;;
65825;SDS011;52586;-43.152;172.732;2023-04-06T12:45:13;1.17;;;1.02;;
65825;SDS011;52586;-43.152;172.732;2023-04-06T12:47:46;1.33;;;1.05;;
65825;SDS011;52586;-43.152;172.732;2023-04-06T12:50:17;2.28;;;1.13;;
65825;SDS011;52586;-43.152;172.732;2023-04-06T12:52:47;1.50;;;1.38;;
65825;SDS011;52586;-43.152;172.732;2023-04-06T12:55:18;1.42;;;1.20;;
65825;SDS011;52586;-43.152;172.732;2023-04-06T12:57:49;1.75;;;1.10;;
65825;SDS011;52586;-43.152;172.732;2023-04-06T13:00:21;1.80;;;1.20;;
65825;SDS011;52586;-43.152;172.732;2023-04-06T13:02:53;2.55;;;1.40;;
65825;SDS011;52586;-43.152;172.732;2023-04-06T13:05:24;1.35;;;0.90;;
65825;SDS011;52586;-43.152;172.732;2023-04-06T13:07:55;1.77;;;1.17;;
65825;SDS011;52586;-43.152;172.732;2023-04-06T13:10:25;1.23;;;0.90;;
65825;SDS011;52586;-43.152;172.732;2023-04-06T13:12:56;1.90;;;1.17;;
65825;SDS011;52586;-43.152;172.732;2023-04-06T13:15:27;1.17;;;0.90;;
65825;SDS011;52586;-43.152;172.732;2023-04-06T13:18:00;1.60;;;1.00;;
65825;SDS011;52586;-43.152;172.732;2023-04-06T13:20:30;1.25;;;0.85;;
65825;SDS011;52586;-43.152;172.732;2023-04-06T13:23:01;1.50;;;0.90;;
65825;SDS011;52586;-43.152;172.732;2023-04-06T13:25:32;1.33;;;1.00;;
65825;SDS011;52586;-43.152;172.732;2023-04-06T13:28:03;1.63;;;0.98;;
65825;SDS011;52586;-43.152;172.732;2023-04-06T13:30:33;3.20;;;1.10;;
65825;SDS011;52586;-43.152;172.732;2023-04-06T13:33:06;1.60;;;1.10;;
65825;SDS011;52586;-43.152;172.732;2023-04-06T13:35:36;1.30;;;0.88;;
65825;SDS011;52586;-43.152;172.732;2023-04-06T13:38:07;1.20;;;0.90;;
65825;SDS011;52586;-43.152;172.732;2023-04-06T13:40:38;1.80;;;1.27;;
65825;SDS011;52586;-43.152;172.732;2023-04-06T13:43:09;1.40;;;1.00;;
65825;SDS011;52586;-43.152;172.732;2023-04-06T13:45:40;1.85;;;1.00;;
65825;SDS011;52586;-43.152;172.732;2023-04-06T13:48:19;1.73;;;1.08;;
65825;SDS011;52586;-43.152;172.732;2023-04-06T13:50:49;1.13;;;0.82;;
65825;SDS011;52586;-43.152;172.732;2023-04-06T13:53:20;1.75;;;1.25;;
65825;SDS011;52586;-43.152;172.732;2023-04-06T13:55:54;1.98;;;1.00;;
65825;SDS011;52586;-43.152;172.732;2023-04-06T13:58:25;1.70;;;0.95;;
65825;SDS011;52586;-43.152;172.732;2023-04-06T14:00:55;1.40;;;1.10;;
65825;SDS011;52586;-43.152;172.732;2023-04-06T14:03:34;1.45;;;1.00;;
65825;SDS011;52586;-43.152;172.732;2023-04-06T14:06:09;1.30;;;0.93;;
65825;SDS011;52586;-43.152;172.732;2023-04-06T14:08:41;1.42;;;0.90;;
65825;SDS011;52586;-43.152;172.732;2023-04-06T14:11:12;1.35;;;1.00;;
65825;SDS011;52586;-43.152;172.732;2023-04-06T14:13:42;1.35;;;1.10;;
65825;SDS011;52586;-43.152;172.732;2023-04-06T14:16:13;1.20;;;1.08;;
65825;SDS011;52586;-43.152;172.732;2023-04-06T14:18:47;1.67;;;1.10;;
65825;SDS011;52586;-43.152;172.732;2023-04-06T14:21:18;1.75;;;1.15;;
65825;SDS011;52586;-43.152;172.732;2023-04-06T14:23:48;1.10;;;1.00;;
65825;SDS011;52586;-43.152;172.732;2023-04-06T14:26:19;1.42;;;0.82;;
65825;SDS011;52586;-43.152;172.732;2023-04-06T14:28:50;0.82;;;0.60;;
65825;SDS011;52586;-43.152;172.732;2023-04-06T14:31:21;1.05;;;0.95;;